Time;durP1;ratioP1;P1;durP2;ratioP2;P2;SDS_P1;SDS_P2;PMS_P1;PMS_P2;Temp;Humidity;BMP_temperature;BMP_pressure;BME280_temperature;BME280_humidity;BME280_pressure;Samples;Min_cycle;Max_cycle;Signal;HPM_P1;HPM_P2
2021/08/26 00:06:46;;;;;;;9.10;6.10;;;;;;;;;;5053328;28;20428;-67
2021/08/26 00:09:15;;;;;;;8.37;5.67;;;;;;;;;;5049430;28;20525;-68
2021/08/26 00:11:44;;;;;;;8.87;5.30;;;;;;;;;;5032925;28;20395;-67
2021/08/26 00:14:10;;;;;;;8.17;5.43;;;;;;;;;;5034569;28;20919;-67
2021/08/26 00:16:38;;;;;;;9.77;6.30;;;;;;;;;;5052951;28;20429;-67
2021/08/26 00:19:04;;;;;;;9.27;5.70;;;;;;;;;;5051108;28;20424;-68
2021/08/26 00:21:30;;;;;;;9.57;5.67;;;;;;;;;;5052763;28;20988;-67
2021/08/26 00:23:56;;;;;;;8.90;6.03;;;;;;;;;;5051766;28;20405;-68
2021/08/26 00:26:22;;;;;;;12.30;6.40;;;;;;;;;;5052051;28;20418;-67
2021/08/26 00:28:48;;;;;;;10.10;5.93;;;;;;;;;;5052670;28;20434;-68
2021/08/26 00:31:14;;;;;;;9.73;6.50;;;;;;;;;;5051492;28;20438;-68
2021/08/26 00:33:40;;;;;;;10.10;5.70;;;;;;;;;;5052761;28;20413;-67
2021/08/26 00:36:06;;;;;;;8.73;5.60;;;;;;;;;;5046802;28;20476;-67
2021/08/26 00:38:32;;;;;;;8.97;5.80;;;;;;;;;;5053569;28;20433;-67
2021/08/26 00:40:59;;;;;;;8.57;5.97;;;;;;;;;;5054859;28;20450;-67
2021/08/26 00:43:27;;;;;;;9.40;5.87;;;;;;;;;;5056434;28;20882;-67
2021/08/26 00:45:53;;;;;;;8.80;6.50;;;;;;;;;;5043200;28;20426;-67
2021/08/26 00:48:21;;;;;;;10.50;6.30;;;;;;;;;;5036643;28;20430;-67
2021/08/26 00:50:49;;;;;;;10.53;6.70;;;;;;;;;;5035706;28;20922;-68
2021/08/26 00:53:15;;;;;;;9.47;6.30;;;;;;;;;;5036395;28;20773;-68
2021/08/26 00:55:41;;;;;;;11.10;6.77;;;;;;;;;;5044785;28;20799;-67
2021/08/26 00:58:07;;;;;;;11.63;7.13;;;;;;;;;;5054836;28;20433;-67
2021/08/26 01:00:34;;;;;;;10.40;7.20;;;;;;;;;;5047781;28;20949;-67
2021/08/26 01:03:01;;;;;;;10.43;6.37;;;;;;;;;;5036220;28;20840;-67
2021/08/26 01:05:27;;;;;;;11.23;6.80;;;;;;;;;;5042458;28;20442;-67
2021/08/26 01:07:53;;;;;;;7.97;6.17;;;;;;;;;;5055862;28;20422;-67
2021/08/26 01:10:19;;;;;;;9.13;6.40;;;;;;;;;;5054775;28;20429;-67
2021/08/26 01:12:47;;;;;;;11.00;7.43;;;;;;;;;;5056201;28;20501;-68
2021/08/26 01:15:14;;;;;;;9.90;5.73;;;;;;;;;;5050046;28;20469;-68
2021/08/26 01:17:43;;;;;;;10.93;7.37;;;;;;;;;;5036099;28;20434;-67
2021/08/26 01:20:10;;;;;;;9.80;7.37;;;;;;;;;;5039336;28;20455;-68
2021/08/26 01:22:36;;;;;;;11.83;6.70;;;;;;;;;;5036619;28;20534;-67
2021/08/26 01:25:04;;;;;;;10.30;7.93;;;;;;;;;;5036015;28;20478;-67
2021/08/26 01:27:49;;;;;;;10.57;5.90;;;;;;;;;;5035642;28;20856;-67
2021/08/26 01:30:18;;;;;;;11.23;6.87;;;;;;;;;;5035573;28;20490;-67
2021/08/26 01:32:44;;;;;;;7.10;5.50;;;;;;;;;;5035802;28;20503;-67
2021/08/26 01:35:12;;;;;;;9.70;6.37;;;;;;;;;;5035622;28;20892;-67
2021/08/26 01:37:41;;;;;;;7.93;5.80;;;;;;;;;;5035654;28;20447;-67
2021/08/26 01:40:08;;;;;;;10.80;7.73;;;;;;;;;;5035613;28;20512;-67
2021/08/26 01:42:34;;;;;;;10.03;6.40;;;;;;;;;;5035252;28;20426;-67
2021/08/26 01:45:00;;;;;;;9.43;6.53;;;;;;;;;;5035664;28;20428;-68
2021/08/26 01:47:26;;;;;;;9.17;6.80;;;;;;;;;;5035080;28;20785;-67
2021/08/26 01:49:53;;;;;;;7.53;5.40;;;;;;;;;;5034838;28;20410;-68
2021/08/26 01:52:20;;;;;;;11.20;6.30;;;;;;;;;;5036833;28;20430;-68
2021/08/26 01:54:53;;;;;;;13.20;5.90;;;;;;;;;;5055226;28;20406;-68
2021/08/26 01:57:20;;;;;;;12.10;6.40;;;;;;;;;;5052500;28;20440;-68
2021/08/26 01:59:46;;;;;;;7.13;5.60;;;;;;;;;;5055058;28;20966;-68
2021/08/26 02:02:12;;;;;;;8.77;6.10;;;;;;;;;;5054369;28;20430;-67
2021/08/26 02:04:38;;;;;;;9.63;6.23;;;;;;;;;;5055098;28;20402;-68
2021/08/26 02:07:04;;;;;;;11.47;6.60;;;;;;;;;;5041538;28;20422;-68
2021/08/26 02:09:30;;;;;;;8.20;5.60;;;;;;;;;;5035899;28;20419;-68
2021/08/26 02:11:56;;;;;;;9.43;7.00;;;;;;;;;;5046133;28;20417;-68
2021/08/26 02:14:22;;;;;;;10.07;6.10;;;;;;;;;;5055285;28;20398;-68
2021/08/26 02:16:48;;;;;;;8.50;5.73;;;;;;;;;;5044092;28;20912;-68
2021/08/26 02:19:15;;;;;;;9.20;6.03;;;;;;;;;;5035502;28;20422;-68
2021/08/26 02:21:41;;;;;;;10.53;5.73;;;;;;;;;;5044014;28;20480;-68
2021/08/26 02:24:07;;;;;;;9.00;8.00;;;;;;;;;;5055717;28;20874;-67
2021/08/26 02:26:33;;;;;;;8.83;5.90;;;;;;;;;;5052730;28;20457;-66
2021/08/26 02:29:00;;;;;;;8.50;5.93;;;;;;;;;;5055467;28;20418;-66
2021/08/26 02:31:26;;;;;;;8.97;5.20;;;;;;;;;;5054201;28;20453;-67
2021/08/26 02:33:52;;;;;;;8.80;6.50;;;;;;;;;;5055363;28;20398;-66
2021/08/26 02:36:18;;;;;;;8.43;5.77;;;;;;;;;;5054155;28;20461;-68
2021/08/26 02:38:44;;;;;;;8.73;5.87;;;;;;;;;;5054826;28;20445;-69
2021/08/26 02:41:11;;;;;;;8.70;6.37;;;;;;;;;;5041366;28;20556;-67
2021/08/26 02:43:37;;;;;;;9.50;5.40;;;;;;;;;;5055442;28;20479;-67
2021/08/26 02:46:03;;;;;;;9.03;5.63;;;;;;;;;;5053730;28;20469;-68
2021/08/26 02:48:29;;;;;;;13.77;6.70;;;;;;;;;;5055086;28;20441;-68
2021/08/26 02:50:55;;;;;;;10.10;6.63;;;;;;;;;;5046529;28;20779;-68
2021/08/26 02:53:21;;;;;;;8.30;6.13;;;;;;;;;;5051129;28;20906;-68
2021/08/26 02:55:47;;;;;;;7.90;6.20;;;;;;;;;;5054054;28;20404;-67
2021/08/26 02:58:13;;;;;;;8.47;5.60;;;;;;;;;;5054634;28;20460;-68
2021/08/26 03:00:39;;;;;;;8.37;6.40;;;;;;;;;;5050641;28;21063;-68
2021/08/26 03:03:05;;;;;;;9.70;6.03;;;;;;;;;;5053724;28;20421;-68
2021/08/26 03:05:31;;;;;;;6.50;5.33;;;;;;;;;;5054974;28;20902;-68
2021/08/26 03:07:57;;;;;;;8.57;4.80;;;;;;;;;;5054450;28;20448;-68
2021/08/26 03:10:24;;;;;;;8.17;5.80;;;;;;;;;;5054667;28;20441;-68
2021/08/26 03:12:51;;;;;;;9.57;5.90;;;;;;;;;;5037611;28;20458;-68
2021/08/26 03:15:17;;;;;;;8.53;5.27;;;;;;;;;;5035183;28;20402;-68
2021/08/26 03:17:43;;;;;;;8.83;5.20;;;;;;;;;;5048862;28;20446;-68
2021/08/26 03:20:09;;;;;;;8.23;6.70;;;;;;;;;;5054684;28;20978;-68
2021/08/26 03:22:35;;;;;;;9.30;5.67;;;;;;;;;;5053810;28;20456;-68
2021/08/26 03:25:01;;;;;;;9.07;5.90;;;;;;;;;;5054659;28;20879;-67
2021/08/26 03:27:27;;;;;;;13.63;6.73;;;;;;;;;;5049006;28;20426;-67
2021/08/26 03:29:53;;;;;;;9.27;5.70;;;;;;;;;;5034435;28;20919;-67
2021/08/26 03:32:20;;;;;;;11.90;6.37;;;;;;;;;;5033222;28;20427;-70
2021/08/26 03:34:46;;;;;;;11.73;5.80;;;;;;;;;;5053735;28;20429;-67
2021/08/26 03:37:12;;;;;;;8.77;5.13;;;;;;;;;;5046503;28;20433;-68
2021/08/26 03:39:38;;;;;;;8.23;5.60;;;;;;;;;;5052286;28;21075;-67
2021/08/26 03:42:04;;;;;;;9.00;5.80;;;;;;;;;;5054320;28;20406;-67
2021/08/26 03:44:30;;;;;;;7.30;5.73;;;;;;;;;;5051877;28;20535;-67
2021/08/26 03:46:56;;;;;;;8.20;5.07;;;;;;;;;;5054452;28;20891;-67
2021/08/26 03:49:22;;;;;;;11.03;6.57;;;;;;;;;;5037912;28;20485;-67
2021/08/26 03:51:48;;;;;;;6.90;5.20;;;;;;;;;;5034379;28;20414;-67
2021/08/26 03:54:14;;;;;;;9.50;5.90;;;;;;;;;;5048415;28;20447;-67
2021/08/26 03:56:40;;;;;;;9.10;6.10;;;;;;;;;;5054204;28;20952;-68
2021/08/26 03:59:06;;;;;;;12.37;6.63;;;;;;;;;;5040415;28;20454;-68
2021/08/26 04:01:33;;;;;;;8.80;5.77;;;;;;;;;;5033871;28;20541;-67
2021/08/26 04:03:59;;;;;;;9.13;6.60;;;;;;;;;;5045016;28;20530;-67
2021/08/26 04:06:25;;;;;;;11.73;6.60;;;;;;;;;;5052941;28;20451;-69
2021/08/26 04:08:51;;;;;;;6.30;4.80;;;;;;;;;;5051261;28;20477;-68
2021/08/26 04:11:17;;;;;;;9.00;5.60;;;;;;;;;;5054069;28;20405;-68
2021/08/26 04:13:43;;;;;;;9.10;6.37;;;;;;;;;;5056068;28;20428;-68
2021/08/26 04:16:09;;;;;;;7.93;5.23;;;;;;;;;;5058107;28;20402;-68
2021/08/26 04:18:35;;;;;;;8.80;5.50;;;;;;;;;;5056565;28;20821;-68
2021/08/26 04:21:01;;;;;;;11.20;5.87;;;;;;;;;;5057625;28;20441;-68
2021/08/26 04:23:27;;;;;;;10.90;6.03;;;;;;;;;;5049717;28;20949;-67
2021/08/26 04:25:53;;;;;;;8.10;5.73;;;;;;;;;;5037749;28;20743;-67
2021/08/26 04:28:19;;;;;;;9.33;6.20;;;;;;;;;;5042526;28;20442;-67
2021/08/26 04:30:45;;;;;;;8.93;6.43;;;;;;;;;;5057326;28;20771;-69
2021/08/26 04:33:11;;;;;;;9.67;5.87;;;;;;;;;;5051994;28;20434;-68
2021/08/26 04:35:37;;;;;;;9.77;5.43;;;;;;;;;;5037323;28;20442;-68
2021/08/26 04:38:03;;;;;;;8.17;5.83;;;;;;;;;;5039258;28;20488;-68
2021/08/26 04:40:29;;;;;;;9.50;5.90;;;;;;;;;;5050992;28;20457;-68
2021/08/26 04:42:55;;;;;;;8.30;5.97;;;;;;;;;;5036816;28;20442;-69
2021/08/26 04:45:21;;;;;;;7.43;5.63;;;;;;;;;;5036853;28;20414;-68
2021/08/26 04:47:47;;;;;;;8.33;5.57;;;;;;;;;;5037037;28;20453;-67
2021/08/26 04:50:13;;;;;;;8.77;5.80;;;;;;;;;;5036633;28;20783;-67
2021/08/26 04:52:39;;;;;;;10.30;6.30;;;;;;;;;;5036999;28;20410;-67
2021/08/26 04:55:06;;;;;;;9.57;6.07;;;;;;;;;;5055428;28;20915;-68
2021/08/26 04:57:32;;;;;;;7.73;5.90;;;;;;;;;;5057228;28;20754;-68
2021/08/26 04:59:58;;;;;;;11.40;6.80;;;;;;;;;;5055577;28;20958;-68
2021/08/26 05:02:24;;;;;;;9.43;6.33;;;;;;;;;;5056948;28;20398;-67
2021/08/26 05:04:50;;;;;;;10.17;5.90;;;;;;;;;;5055354;28;20515;-68
2021/08/26 05:07:16;;;;;;;10.87;6.47;;;;;;;;;;5056726;28;20394;-68
2021/08/26 05:09:42;;;;;;;8.13;5.37;;;;;;;;;;5041096;28;20423;-68
2021/08/26 05:12:08;;;;;;;10.30;7.07;;;;;;;;;;5037349;28;20422;-68
2021/08/26 05:14:34;;;;;;;9.67;6.90;;;;;;;;;;5050126;28;20783;-68
2021/08/26 05:17:01;;;;;;;8.87;5.87;;;;;;;;;;5057012;28;20433;-67
2021/08/26 05:19:27;;;;;;;9.43;6.77;;;;;;;;;;5055562;28;20541;-66
2021/08/26 05:21:53;;;;;;;9.00;6.00;;;;;;;;;;5056939;28;20461;-66
2021/08/26 05:24:19;;;;;;;9.70;5.40;;;;;;;;;;5055007;28;20430;-67
2021/08/26 05:26:45;;;;;;;11.13;7.13;;;;;;;;;;5056595;28;20405;-69
2021/08/26 05:29:11;;;;;;;8.50;5.63;;;;;;;;;;5045025;28;20438;-68
2021/08/26 05:31:37;;;;;;;6.50;5.00;;;;;;;;;;5036698;28;20453;-68
2021/08/26 05:34:03;;;;;;;8.03;6.00;;;;;;;;;;5036571;28;20438;-68
2021/08/26 05:36:29;;;;;;;9.50;6.23;;;;;;;;;;5036680;28;20407;-67
2021/08/26 05:38:55;;;;;;;9.47;6.07;;;;;;;;;;5035721;28;20561;-68
2021/08/26 05:41:21;;;;;;;8.73;6.07;;;;;;;;;;5036999;28;20953;-67
2021/08/26 05:43:47;;;;;;;10.37;6.67;;;;;;;;;;5036495;28;20526;-68
2021/08/26 05:46:13;;;;;;;8.20;6.40;;;;;;;;;;5036317;28;20399;-68
2021/08/26 05:48:39;;;;;;;9.63;5.63;;;;;;;;;;5046271;28;20442;-67
2021/08/26 05:51:05;;;;;;;7.47;5.87;;;;;;;;;;5036515;28;20476;-67
2021/08/26 05:53:31;;;;;;;6.77;5.10;;;;;;;;;;5038197;28;20436;-67
2021/08/26 05:55:57;;;;;;;11.00;7.40;;;;;;;;;;5055084;28;20452;-67
2021/08/26 05:58:23;;;;;;;11.63;5.70;;;;;;;;;;5053432;28;21418;-67
2021/08/26 06:00:49;;;;;;;10.37;5.87;;;;;;;;;;5056535;28;20924;-66
2021/08/26 06:03:16;;;;;;;10.43;6.23;;;;;;;;;;5054691;28;20426;-66
2021/08/26 06:05:42;;;;;;;9.40;6.60;;;;;;;;;;5055324;28;20766;-66
2021/08/26 06:08:08;;;;;;;10.70;6.37;;;;;;;;;;5053872;28;20429;-66
2021/08/26 06:10:36;;;;;;;7.53;5.43;;;;;;;;;;5034876;28;20407;-66
2021/08/26 06:13:03;;;;;;;9.03;6.13;;;;;;;;;;5034871;28;20403;-66
2021/08/26 06:15:29;;;;;;;8.77;6.20;;;;;;;;;;5053047;28;20433;-66
2021/08/26 06:17:55;;;;;;;7.60;5.53;;;;;;;;;;5054629;28;20422;-66
2021/08/26 06:20:21;;;;;;;8.20;5.70;;;;;;;;;;5052080;28;20457;-66
2021/08/26 06:22:47;;;;;;;8.63;5.83;;;;;;;;;;5054548;28;20438;-66
2021/08/26 06:25:13;;;;;;;10.20;6.67;;;;;;;;;;5053380;28;20429;-67
2021/08/26 06:27:39;;;;;;;8.20;6.20;;;;;;;;;;5054482;28;20914;-66
2021/08/26 06:30:06;;;;;;;16.03;6.20;;;;;;;;;;5038128;28;20438;-67
2021/08/26 06:32:32;;;;;;;8.73;5.93;;;;;;;;;;5034674;28;20403;-67
2021/08/26 06:34:58;;;;;;;10.30;6.53;;;;;;;;;;5047315;28;20464;-67
2021/08/26 06:37:25;;;;;;;7.60;5.63;;;;;;;;;;5054426;28;20944;-67
2021/08/26 06:39:51;;;;;;;8.60;6.20;;;;;;;;;;5049983;28;20440;-67
2021/08/26 06:42:17;;;;;;;10.73;7.27;;;;;;;;;;5045114;28;20505;-70
2021/08/26 06:44:43;;;;;;;8.00;6.07;;;;;;;;;;5047073;28;20419;-70
2021/08/26 06:47:09;;;;;;;8.57;6.57;;;;;;;;;;5035631;28;20439;-68
2021/08/26 06:49:35;;;;;;;8.97;5.87;;;;;;;;;;5036474;28;20477;-65
2021/08/26 06:52:01;;;;;;;11.60;7.20;;;;;;;;;;5035095;28;20485;-66
2021/08/26 06:54:28;;;;;;;7.73;6.47;;;;;;;;;;5037629;28;20427;-67
2021/08/26 06:56:54;;;;;;;12.03;6.37;;;;;;;;;;5034548;28;20407;-68
2021/08/26 06:59:20;;;;;;;9.03;5.93;;;;;;;;;;5028667;28;20445;-69
2021/08/26 07:01:46;;;;;;;7.97;5.80;;;;;;;;;;5039830;28;20630;-69
2021/08/26 07:04:12;;;;;;;7.40;5.90;;;;;;;;;;5049198;28;20441;-69
2021/08/26 07:06:38;;;;;;;10.83;7.57;;;;;;;;;;5032370;28;20425;-68
2021/08/26 07:09:04;;;;;;;8.77;5.70;;;;;;;;;;5041746;28;20446;-67
2021/08/26 07:11:31;;;;;;;9.10;5.73;;;;;;;;;;5035857;28;20428;-68
2021/08/26 07:13:57;;;;;;;12.00;6.20;;;;;;;;;;5036293;28;20922;-66
2021/08/26 07:16:23;;;;;;;12.77;6.07;;;;;;;;;;5039861;28;20981;-66
2021/08/26 07:18:49;;;;;;;16.50;8.77;;;;;;;;;;5041038;28;20475;-68
2021/08/26 07:21:15;;;;;;;9.97;6.60;;;;;;;;;;5047693;28;20454;-67
2021/08/26 07:23:41;;;;;;;10.43;5.50;;;;;;;;;;5037400;28;20833;-67
2021/08/26 07:26:07;;;;;;;10.50;6.87;;;;;;;;;;5033464;28;20753;-68
2021/08/26 07:28:33;;;;;;;9.60;6.77;;;;;;;;;;5037348;28;20489;-68
2021/08/26 07:30:59;;;;;;;9.00;6.60;;;;;;;;;;5037583;28;20640;-72
2021/08/26 07:33:25;;;;;;;9.17;6.10;;;;;;;;;;5042441;28;20410;-74
2021/08/26 07:35:52;;;;;;;8.40;6.50;;;;;;;;;;5039014;28;20429;-74
2021/08/26 07:38:18;;;;;;;9.10;6.10;;;;;;;;;;5035742;28;20466;-70
2021/08/26 07:40:44;;;;;;;10.37;7.40;;;;;;;;;;5047708;28;20457;-68
2021/08/26 07:43:10;;;;;;;12.97;7.40;;;;;;;;;;5043363;28;20480;-73
2021/08/26 07:45:37;;;;;;;14.87;8.40;;;;;;;;;;5034444;28;20441;-70
2021/08/26 07:48:03;;;;;;;14.53;8.50;;;;;;;;;;5040244;28;20446;-69
2021/08/26 07:50:29;;;;;;;14.43;9.30;;;;;;;;;;5038740;28;20512;-68
2021/08/26 07:52:55;;;;;;;14.23;9.77;;;;;;;;;;5043255;28;20495;-66
2021/08/26 07:55:21;;;;;;;15.20;10.63;;;;;;;;;;5040698;28;20430;-67
2021/08/26 07:57:47;;;;;;;13.70;9.40;;;;;;;;;;5055460;28;20949;-67
2021/08/26 08:00:13;;;;;;;17.27;10.00;;;;;;;;;;5040306;28;20601;-66
2021/08/26 08:02:39;;;;;;;16.90;11.30;;;;;;;;;;5038114;28;20434;-67
2021/08/26 08:05:05;;;;;;;18.20;11.37;;;;;;;;;;5034894;28;20924;-67
2021/08/26 08:07:31;;;;;;;22.00;12.00;;;;;;;;;;5035161;28;20457;-68
2021/08/26 08:09:57;;;;;;;20.20;11.60;;;;;;;;;;5034665;28;20489;-69
2021/08/26 08:12:23;;;;;;;18.30;11.77;;;;;;;;;;5033332;28;20971;-67
2021/08/26 08:14:49;;;;;;;20.10;13.43;;;;;;;;;;5043711;28;20414;-69
2021/08/26 08:17:15;;;;;;;21.17;12.93;;;;;;;;;;5038456;28;20445;-68
2021/08/26 08:19:41;;;;;;;17.97;10.90;;;;;;;;;;5049045;28;20522;-68
2021/08/26 08:22:07;;;;;;;18.60;12.50;;;;;;;;;;5040529;28;20850;-68
2021/08/26 08:24:33;;;;;;;18.10;12.30;;;;;;;;;;5035417;28;20475;-68
2021/08/26 08:26:59;;;;;;;18.57;12.10;;;;;;;;;;5044679;28;20406;-68
2021/08/26 08:29:26;;;;;;;14.87;10.90;;;;;;;;;;5040210;28;20439;-68
2021/08/26 08:31:52;;;;;;;18.53;11.67;;;;;;;;;;5034952;28;20418;-68
2021/08/26 08:34:18;;;;;;;19.37;12.70;;;;;;;;;;5035852;28;20425;-68
2021/08/26 08:36:44;;;;;;;19.83;11.93;;;;;;;;;;5043059;28;20924;-68
2021/08/26 08:39:10;;;;;;;17.70;11.03;;;;;;;;;;5040181;28;20461;-68
2021/08/26 08:41:36;;;;;;;18.23;12.50;;;;;;;;;;5041446;28;20519;-68
2021/08/26 08:44:02;;;;;;;17.30;12.13;;;;;;;;;;5033683;28;20784;-68
2021/08/26 08:46:28;;;;;;;19.33;12.20;;;;;;;;;;5037299;28;20874;-68
2021/08/26 08:48:56;;;;;;;19.83;12.20;;;;;;;;;;5039851;28;20488;-68
2021/08/26 08:51:23;;;;;;;17.57;13.80;;;;;;;;;;5049210;28;20787;-68
2021/08/26 08:53:49;;;;;;;17.97;11.93;;;;;;;;;;5038308;28;20781;-68
2021/08/26 08:56:16;;;;;;;16.90;11.80;;;;;;;;;;5048521;28;20477;-68
2021/08/26 08:58:42;;;;;;;20.10;12.27;;;;;;;;;;5043300;28;20450;-67
2021/08/26 09:01:08;;;;;;;16.63;11.53;;;;;;;;;;5052835;28;20458;-68
2021/08/26 09:03:38;;;;;;;16.93;12.53;;;;;;;;;;5041557;28;20410;-68
2021/08/26 09:06:04;;;;;;;17.87;11.97;;;;;;;;;;5048425;28;20433;-68
2021/08/26 09:08:31;;;;;;;16.80;12.57;;;;;;;;;;5039090;28;20972;-68
2021/08/26 09:11:09;;;;;;;18.03;12.60;;;;;;;;;;5053074;28;20825;-68
2021/08/26 09:13:35;;;;;;;20.37;12.37;;;;;;;;;;5039230;28;20427;-68
2021/08/26 09:16:02;;;;;;;19.27;13.67;;;;;;;;;;5050256;28;20516;-68
2021/08/26 09:18:29;;;;;;;19.17;13.30;;;;;;;;;;5039165;28;20944;-67
2021/08/26 09:21:01;;;;;;;23.33;14.47;;;;;;;;;;5040482;28;20458;-68
2021/08/26 09:23:28;;;;;;;24.77;16.00;;;;;;;;;;5042349;28;20833;-67
2021/08/26 09:25:55;;;;;;;21.17;13.87;;;;;;;;;;5043183;28;20422;-68
2021/08/26 09:28:27;;;;;;;20.43;14.60;;;;;;;;;;5040140;28;20431;-67
2021/08/26 09:31:13;;;;;;;24.33;16.37;;;;;;;;;;5051783;28;20425;-67
2021/08/26 09:33:53;;;;;;;19.47;13.13;;;;;;;;;;5051004;28;20426;-68
2021/08/26 09:36:30;;;;;;;24.57;14.00;;;;;;;;;;5046171;28;20459;-68
2021/08/26 09:39:05;;;;;;;26.30;15.53;;;;;;;;;;5035323;28;20966;-68
2021/08/26 09:41:39;;;;;;;23.00;16.33;;;;;;;;;;5053085;28;20457;-68
2021/08/26 09:44:05;;;;;;;22.10;15.80;;;;;;;;;;5046477;28;20435;-67
2021/08/26 09:46:32;;;;;;;26.63;16.17;;;;;;;;;;5046409;28;20916;-67
2021/08/26 09:49:08;;;;;;;25.80;18.20;;;;;;;;;;5040068;28;20442;-68
2021/08/26 09:51:34;;;;;;;22.97;16.27;;;;;;;;;;5034288;28;20427;-67
2021/08/26 09:54:01;;;;;;;25.50;19.07;;;;;;;;;;5035504;28;20423;-68
2021/08/26 09:56:41;;;;;;;26.20;18.90;;;;;;;;;;5038118;28;20430;-68
2021/08/26 09:59:07;;;;;;;27.27;19.07;;;;;;;;;;5037495;28;20446;-68
2021/08/26 10:01:37;;;;;;;26.50;16.77;;;;;;;;;;5043290;28;20822;-68
2021/08/26 10:04:03;;;;;;;24.67;17.37;;;;;;;;;;5037094;28;20958;-68
2021/08/26 10:06:30;;;;;;;21.30;14.77;;;;;;;;;;5043050;28;20923;-68
2021/08/26 10:08:57;;;;;;;27.03;15.83;;;;;;;;;;5038565;28;20798;-68
2021/08/26 10:11:23;;;;;;;22.60;16.43;;;;;;;;;;5042867;28;20434;-68
2021/08/26 10:13:50;;;;;;;21.97;16.00;;;;;;;;;;5034850;28;20473;-68
2021/08/26 10:16:16;;;;;;;22.67;15.40;;;;;;;;;;5046587;28;20438;-68
2021/08/26 10:18:42;;;;;;;20.90;14.87;;;;;;;;;;5054296;28;20430;-68
2021/08/26 10:21:09;;;;;;;21.43;15.33;;;;;;;;;;5044208;28;20505;-68
2021/08/26 10:23:39;;;;;;;22.03;15.53;;;;;;;;;;5056059;28;21005;-67
2021/08/26 10:26:07;;;;;;;22.57;14.50;;;;;;;;;;5033656;28;20446;-67
2021/08/26 10:28:39;;;;;;;18.10;13.93;;;;;;;;;;5040237;28;20438;-67
2021/08/26 10:31:24;;;;;;;19.57;13.37;;;;;;;;;;5039058;28;20436;-67
2021/08/26 10:33:50;;;;;;;15.90;12.73;;;;;;;;;;5043294;28;20469;-68
2021/08/26 10:36:17;;;;;;;18.77;12.03;;;;;;;;;;5046144;28;20788;-68
2021/08/26 10:38:43;;;;;;;22.20;14.23;;;;;;;;;;5033939;28;20825;-68
2021/08/26 10:41:18;;;;;;;18.07;13.10;;;;;;;;;;5034615;28;20993;-68
2021/08/26 10:43:44;;;;;;;20.03;12.60;;;;;;;;;;5045336;28;20525;-68
2021/08/26 10:46:11;;;;;;;20.40;12.23;;;;;;;;;;5036562;28;20422;-68
2021/08/26 10:48:38;;;;;;;18.30;12.97;;;;;;;;;;5042426;28;20527;-68
2021/08/26 10:51:11;;;;;;;18.30;11.27;;;;;;;;;;5045192;28;20430;-68
2021/08/26 10:53:39;;;;;;;21.90;13.47;;;;;;;;;;5034186;28;20946;-68
2021/08/26 10:56:26;;;;;;;20.33;12.97;;;;;;;;;;5040651;28;20432;-68
2021/08/26 10:58:56;;;;;;;19.20;13.20;;;;;;;;;;5041586;28;20519;-68
2021/08/26 11:01:28;;;;;;;17.40;12.10;;;;;;;;;;5039127;28;20465;-68
2021/08/26 11:03:56;;;;;;;19.67;12.63;;;;;;;;;;5046743;28;20422;-67
2021/08/26 11:06:22;;;;;;;19.40;11.40;;;;;;;;;;5051653;28;20871;-68
2021/08/26 11:08:52;;;;;;;18.87;14.10;;;;;;;;;;5045113;28;20438;-68
2021/08/26 11:11:30;;;;;;;19.20;12.57;;;;;;;;;;5040771;28;20434;-68
2021/08/26 11:14:07;;;;;;;16.90;11.17;;;;;;;;;;5041336;28;20448;-68
2021/08/26 11:16:35;;;;;;;20.13;11.63;;;;;;;;;;5035402;28;20454;-68
2021/08/26 11:19:16;;;;;;;16.53;11.27;;;;;;;;;;5038095;28;20434;-68
2021/08/26 11:21:42;;;;;;;14.67;9.73;;;;;;;;;;5036115;28;20521;-68
2021/08/26 11:24:09;;;;;;;13.13;9.77;;;;;;;;;;5035106;28;20408;-67
2021/08/26 11:27:05;;;;;;;13.90;10.20;;;;;;;;;;5039700;28;20854;-68
2021/08/26 11:29:35;;;;;;;14.40;9.77;;;;;;;;;;5047837;28;21040;-67
2021/08/26 11:32:02;;;;;;;13.80;9.80;;;;;;;;;;5035649;28;20437;-69
2021/08/26 11:34:33;;;;;;;15.50;8.90;;;;;;;;;;5034315;28;20874;-68
2021/08/26 11:37:05;;;;;;;12.90;8.40;;;;;;;;;;5043779;28;20525;-68
2021/08/26 11:39:33;;;;;;;16.10;9.07;;;;;;;;;;5045300;28;20508;-68
2021/08/26 11:42:00;;;;;;;12.30;9.30;;;;;;;;;;5039084;28;20831;-67
2021/08/26 11:44:27;;;;;;;13.27;9.00;;;;;;;;;;5038877;28;20899;-67
2021/08/26 11:46:54;;;;;;;14.03;9.80;;;;;;;;;;5038709;28;20433;-68
2021/08/26 11:49:20;;;;;;;12.80;10.33;;;;;;;;;;5038048;28;21016;-68
2021/08/26 11:51:46;;;;;;;13.90;9.13;;;;;;;;;;5036493;28;20425;-67
2021/08/26 11:54:13;;;;;;;15.37;8.50;;;;;;;;;;5041659;28;20422;-67
2021/08/26 11:56:43;;;;;;;12.50;9.40;;;;;;;;;;5036395;28;20427;-67
2021/08/26 11:59:25;;;;;;;13.93;8.90;;;;;;;;;;5032866;28;20453;-68
2021/08/26 12:02:11;;;;;;;13.70;9.10;;;;;;;;;;5035750;28;20470;-67
2021/08/26 12:04:37;;;;;;;14.10;9.70;;;;;;;;;;5037868;28;20460;-68
2021/08/26 12:07:03;;;;;;;16.47;9.10;;;;;;;;;;5038147;28;20898;-67
2021/08/26 12:09:29;;;;;;;14.80;10.43;;;;;;;;;;5033573;28;20458;-67
2021/08/26 12:11:55;;;;;;;15.80;11.00;;;;;;;;;;5038906;28;20453;-67
2021/08/26 12:14:22;;;;;;;16.03;11.33;;;;;;;;;;5042336;28;20449;-67
2021/08/26 12:16:48;;;;;;;16.33;11.87;;;;;;;;;;5037967;28;20832;-67
2021/08/26 12:19:15;;;;;;;15.60;11.27;;;;;;;;;;5041623;28;20799;-67
2021/08/26 12:21:41;;;;;;;16.80;11.87;;;;;;;;;;5044491;28;20462;-67
2021/08/26 12:24:09;;;;;;;17.60;12.47;;;;;;;;;;5046297;28;20489;-67
2021/08/26 12:26:38;;;;;;;16.60;13.17;;;;;;;;;;5032309;28;20908;-67
2021/08/26 12:29:04;;;;;;;18.90;12.30;;;;;;;;;;5042064;28;20557;-68
2021/08/26 12:31:31;;;;;;;19.43;12.50;;;;;;;;;;5039693;28;20800;-68
2021/08/26 12:34:03;;;;;;;15.70;11.90;;;;;;;;;;5048402;28;20825;-68
2021/08/26 12:36:31;;;;;;;15.70;12.03;;;;;;;;;;5043753;28;20433;-68
2021/08/26 12:38:57;;;;;;;19.10;12.07;;;;;;;;;;5036148;28;20458;-68
2021/08/26 12:41:24;;;;;;;15.67;12.70;;;;;;;;;;5046264;28;20451;-68
2021/08/26 12:43:54;;;;;;;15.40;12.90;;;;;;;;;;5043973;28;20418;-68
2021/08/26 12:46:21;;;;;;;14.87;12.40;;;;;;;;;;5053562;28;20417;-68
2021/08/26 12:48:48;;;;;;;14.30;10.70;;;;;;;;;;5036679;28;20463;-68
2021/08/26 12:51:14;;;;;;;13.20;10.63;;;;;;;;;;5045042;28;20893;-68
2021/08/26 12:53:42;;;;;;;16.53;11.67;;;;;;;;;;5036596;28;20434;-67
2021/08/26 12:56:09;;;;;;;14.93;10.70;;;;;;;;;;5042712;28;20414;-68
2021/08/26 12:58:35;;;;;;;15.70;11.10;;;;;;;;;;5042116;28;20454;-67
2021/08/26 13:01:18;;;;;;;14.80;9.70;;;;;;;;;;5052666;28;20446;-67
2021/08/26 13:03:55;;;;;;;11.97;9.10;;;;;;;;;;5044229;28;20450;-67
2021/08/26 13:06:34;;;;;;;10.93;8.73;;;;;;;;;;5046138;28;20402;-67
2021/08/26 13:09:09;;;;;;;12.03;8.03;;;;;;;;;;5036421;28;20499;-67
2021/08/26 13:11:40;;;;;;;9.90;8.03;;;;;;;;;;5041360;28;20433;-67
2021/08/26 13:14:07;;;;;;;12.30;8.60;;;;;;;;;;5047410;28;20430;-67
2021/08/26 13:16:33;;;;;;;10.73;9.13;;;;;;;;;;5054237;28;20417;-67
2021/08/26 13:18:59;;;;;;;10.70;7.47;;;;;;;;;;5050558;28;20488;-67
2021/08/26 13:21:25;;;;;;;10.33;8.70;;;;;;;;;;5053473;28;20497;-67
2021/08/26 13:23:51;;;;;;;11.90;8.53;;;;;;;;;;5047357;28;20433;-67
2021/08/26 13:26:17;;;;;;;11.00;8.90;;;;;;;;;;5041927;28;20434;-66
2021/08/26 13:28:43;;;;;;;11.37;8.90;;;;;;;;;;5046540;28;20452;-67
2021/08/26 13:31:09;;;;;;;11.83;9.43;;;;;;;;;;5047509;28;20415;-67
2021/08/26 13:33:36;;;;;;;9.13;8.17;;;;;;;;;;5038122;28;20426;-67
2021/08/26 13:36:02;;;;;;;11.73;8.90;;;;;;;;;;5038915;28;20472;-68
2021/08/26 13:38:29;;;;;;;13.07;10.20;;;;;;;;;;5040612;28;20464;-68
2021/08/26 13:40:55;;;;;;;11.70;7.90;;;;;;;;;;5038404;28;20754;-67
2021/08/26 13:43:21;;;;;;;10.33;7.50;;;;;;;;;;5045488;28;20526;-67
2021/08/26 13:45:47;;;;;;;12.40;7.90;;;;;;;;;;5037561;28;20926;-67
2021/08/26 13:48:13;;;;;;;10.47;7.50;;;;;;;;;;5042420;28;20438;-68
2021/08/26 13:50:39;;;;;;;10.60;7.43;;;;;;;;;;5053368;28;20547;-68
2021/08/26 13:53:05;;;;;;;7.87;6.50;;;;;;;;;;5047052;28;20518;-67
2021/08/26 13:55:34;;;;;;;10.20;7.37;;;;;;;;;;5037931;28;20420;-67
2021/08/26 13:58:01;;;;;;;8.47;7.33;;;;;;;;;;5036970;28;20438;-68
2021/08/26 14:00:30;;;;;;;8.50;7.37;;;;;;;;;;5038529;28;20504;-68
2021/08/26 14:02:59;;;;;;;9.70;6.57;;;;;;;;;;5050548;28;20611;-68
2021/08/26 14:05:25;;;;;;;7.67;6.87;;;;;;;;;;5039014;28;20448;-68
2021/08/26 14:07:51;;;;;;;9.17;6.40;;;;;;;;;;5042936;28;20613;-69
2021/08/26 14:10:18;;;;;;;9.30;5.67;;;;;;;;;;5040126;28;20409;-68
2021/08/26 14:12:44;;;;;;;13.83;4.93;;;;;;;;;;5035189;28;20454;-69
2021/08/26 14:15:10;;;;;;;7.50;6.13;;;;;;;;;;5042709;28;20555;-68
2021/08/26 14:17:36;;;;;;;9.07;6.43;;;;;;;;;;5048358;28;20867;-68
2021/08/26 14:20:03;;;;;;;11.13;5.30;;;;;;;;;;5045754;28;20457;-68
2021/08/26 14:22:29;;;;;;;6.53;5.83;;;;;;;;;;5043115;28;20425;-68
2021/08/26 14:24:55;;;;;;;6.70;5.80;;;;;;;;;;5037371;28;20430;-68
2021/08/26 14:27:21;;;;;;;6.00;5.10;;;;;;;;;;5041346;28;20461;-68
2021/08/26 14:29:47;;;;;;;7.07;5.70;;;;;;;;;;5052320;28;20421;-68
2021/08/26 14:32:13;;;;;;;6.43;5.50;;;;;;;;;;5042451;28;20430;-68
2021/08/26 14:34:39;;;;;;;8.30;5.80;;;;;;;;;;5035742;28;20437;-68
2021/08/26 14:37:05;;;;;;;6.67;5.60;;;;;;;;;;5040519;28;20443;-68